Time;durP1;ratioP1;P1;durP2;ratioP2;P2;SDS_P1;SDS_P2;PMS_P1;PMS_P2;Temp;Humidity;BMP_temperature;BMP_pressure;BME280_temperature;BME280_humidity;BME280_pressure;Samples;Min_cycle;Max_cycle;Signal;HPM_P1;HPM_P2
2020/12/09 00:01:31;;;;;;;39.00;15.87;;;0.70;99.90;;;;;;4981657;28;20042;-85
2020/12/09 00:04:01;;;;;;;42.90;18.77;;;0.70;99.90;;;;;;4982064;28;20030;-85
2020/12/09 00:06:33;;;;;;;42.57;18.43;;;0.70;99.90;;;;;;4997987;28;20061;-85
2020/12/09 00:09:00;;;;;;;43.60;17.40;;;0.70;99.90;;;;;;4998474;28;20069;-85
2020/12/09 00:11:26;;;;;;;43.43;17.73;;;0.70;99.90;;;;;;4997542;28;20033;-86
2020/12/09 00:13:53;;;;;;;44.80;18.63;;;0.70;99.90;;;;;;4980729;28;20110;-85
2020/12/09 00:16:19;;;;;;;39.57;17.43;;;0.70;99.90;;;;;;4965309;28;20036;-85
2020/12/09 00:18:45;;;;;;;43.57;19.40;;;0.70;99.90;;;;;;4980369;28;20042;-85
2020/12/09 00:21:19;;;;;;;41.60;17.73;;;0.70;99.90;;;;;;4998955;28;20021;-85
2020/12/09 00:23:44;;;;;;;32.00;13.67;;;0.70;99.90;;;;;;4980520;28;20129;-86
2020/12/09 00:26:10;;;;;;;41.90;16.47;;;0.70;99.90;;;;;;4962216;28;20096;-85
2020/12/09 00:28:36;;;;;;;40.87;17.67;;;0.70;99.90;;;;;;4998115;28;20037;-85
2020/12/09 00:31:02;;;;;;;41.43;16.83;;;0.60;99.90;;;;;;4981580;28;20077;-84
2020/12/09 00:33:27;;;;;;;44.90;19.73;;;0.70;99.90;;;;;;4979428;28;20042;-85
2020/12/09 00:35:53;;;;;;;45.10;20.10;;;0.70;99.90;;;;;;4983440;28;20042;-86
2020/12/09 00:38:19;;;;;;;50.30;19.77;;;0.60;99.90;;;;;;4988960;28;20038;-85
2020/12/09 00:40:45;;;;;;;44.53;18.13;;;0.60;99.90;;;;;;4984330;28;20126;-84
2020/12/09 00:43:10;;;;;;;43.63;17.40;;;0.60;99.90;;;;;;4981618;28;20033;-85
2020/12/09 00:45:36;;;;;;;43.90;18.27;;;0.60;99.90;;;;;;4986137;28;20054;-85
2020/12/09 00:48:02;;;;;;;43.27;17.33;;;0.60;99.90;;;;;;4982449;28;20047;-86
2020/12/09 00:50:27;;;;;;;45.03;19.87;;;0.60;99.90;;;;;;4982489;28;20066;-84
2020/12/09 00:52:54;;;;;;;42.60;17.93;;;0.60;99.90;;;;;;4987208;28;20039;-85
2020/12/09 00:55:19;;;;;;;42.13;16.17;;;0.60;99.90;;;;;;4967567;28;20061;-85
2020/12/09 00:57:45;;;;;;;45.83;18.50;;;0.60;99.90;;;;;;4985014;28;20034;-85
2020/12/09 01:00:12;;;;;;;46.60;18.67;;;0.60;99.90;;;;;;4981252;28;20089;-85
2020/12/09 01:02:37;;;;;;;45.70;18.07;;;0.60;99.90;;;;;;5012211;28;20038;-85
2020/12/09 01:05:06;;;;;;;41.97;17.20;;;0.60;99.90;;;;;;4987985;28;20481;-85
2020/12/09 01:07:32;;;;;;;48.88;19.75;;;0.60;99.90;;;;;;4994795;28;20153;-85
2020/12/09 01:09:58;;;;;;;43.70;18.50;;;0.60;99.90;;;;;;4988553;28;20122;-85
2020/12/09 01:12:25;;;;;;;43.17;18.73;;;0.50;99.90;;;;;;4964589;28;20041;-85
2020/12/09 01:14:53;;;;;;;48.93;21.07;;;0.50;99.90;;;;;;4981781;28;20022;-85
2020/12/09 01:17:20;;;;;;;45.43;19.83;;;0.50;99.90;;;;;;4994622;28;20065;-86
2020/12/09 01:19:52;;;;;;;42.23;18.17;;;0.50;99.90;;;;;;4985822;28;20023;-85
2020/12/09 01:22:17;;;;;;;42.73;18.53;;;0.40;99.90;;;;;;4983221;28;20047;-85
2020/12/09 01:24:43;;;;;;;48.57;19.87;;;0.40;99.90;;;;;;4982859;28;20038;-85
2020/12/09 01:27:10;;;;;;;42.77;18.73;;;0.50;99.90;;;;;;4984656;28;20038;-85
2020/12/09 01:29:36;;;;;;;41.53;18.03;;;0.50;99.90;;;;;;4999957;28;20030;-86
2020/12/09 01:32:07;;;;;;;44.27;18.10;;;0.50;99.90;;;;;;4984177;28;20608;-82
2020/12/09 01:34:32;;;;;;;42.30;18.20;;;0.60;99.90;;;;;;5005622;28;20033;-83
2020/12/09 01:37:00;;;;;;;42.83;19.23;;;0.60;99.90;;;;;;4985169;28;20481;-84
2020/12/09 01:39:26;;;;;;;43.77;19.10;;;0.60;99.90;;;;;;4980188;28;20030;-85
2020/12/09 01:41:51;;;;;;;46.53;20.87;;;0.70;99.90;;;;;;4981963;28;20469;-85
2020/12/09 01:44:18;;;;;;;45.00;19.23;;;0.70;99.90;;;;;;4984966;28;20034;-86
2020/12/09 01:46:44;;;;;;;42.07;19.00;;;0.80;99.90;;;;;;4990808;28;20145;-85
2020/12/09 01:49:11;;;;;;;45.20;20.63;;;0.80;99.90;;;;;;4963398;28;20071;-83
2020/12/09 01:51:37;;;;;;;42.00;20.10;;;0.80;99.90;;;;;;4962500;28;20086;-84
2020/12/09 01:54:03;;;;;;;45.53;19.97;;;0.80;99.90;;;;;;4956685;28;20035;-84
2020/12/09 01:56:28;;;;;;;42.27;19.03;;;0.90;99.90;;;;;;4980847;28;20429;-85
2020/12/09 01:58:55;;;;;;;45.70;20.57;;;0.90;99.90;;;;;;4969067;28;20015;-84
2020/12/09 02:01:21;;;;;;;42.93;19.10;;;0.90;99.90;;;;;;4985532;28;20034;-85
2020/12/09 02:03:48;;;;;;;37.67;17.70;;;1.00;99.90;;;;;;4962903;28;20098;-85
2020/12/09 02:06:18;;;;;;;39.83;19.07;;;1.10;99.90;;;;;;4962948;28;20523;-84
2020/12/09 02:08:45;;;;;;;38.63;18.27;;;1.10;99.90;;;;;;4968114;28;20045;-85
2020/12/09 02:11:10;;;;;;;40.13;18.83;;;1.10;99.90;;;;;;4968903;28;20062;-84
2020/12/09 02:13:44;;;;;;;43.60;18.40;;;1.10;99.90;;;;;;4990771;28;20039;-85
2020/12/09 02:16:13;;;;;;;41.40;19.10;;;1.10;99.90;;;;;;4972477;28;20089;-84
2020/12/09 02:18:40;;;;;;;36.60;17.63;;;1.10;99.90;;;;;;4982656;28;20031;-86
2020/12/09 02:21:05;;;;;;;40.57;18.77;;;1.20;99.90;;;;;;4950437;28;20031;-86
2020/12/09 02:23:31;;;;;;;36.30;15.47;;;1.20;99.90;;;;;;4960478;28;20025;-85
2020/12/09 02:25:58;;;;;;;31.90;14.80;;;1.20;99.90;;;;;;4960202;28;20043;-85
2020/12/09 02:28:23;;;;;;;38.87;18.43;;;1.20;99.90;;;;;;4972083;28;20031;-85
2020/12/09 02:30:49;;;;;;;32.57;15.03;;;1.20;99.90;;;;;;4977382;28;20034;-87
2020/12/09 02:33:15;;;;;;;40.27;18.27;;;1.30;99.90;;;;;;4961731;28;20461;-85
2020/12/09 02:35:40;;;;;;;30.20;13.03;;;1.30;99.90;;;;;;4978886;28;20047;-86
2020/12/09 02:38:06;;;;;;;32.50;14.43;;;1.30;99.90;;;;;;4978955;28;20127;-84
2020/12/09 02:40:33;;;;;;;31.33;13.97;;;1.30;99.90;;;;;;4962095;28;20038;-83
2020/12/09 02:42:59;;;;;;;35.83;17.90;;;1.40;99.90;;;;;;4982894;28;20098;-85
2020/12/09 02:45:25;;;;;;;35.70;17.70;;;1.30;99.90;;;;;;4993416;28;20038;-85
2020/12/09 02:47:51;;;;;;;34.03;16.63;;;1.40;99.90;;;;;;4985044;28;20050;-84
2020/12/09 02:50:17;;;;;;;36.20;15.97;;;1.40;99.90;;;;;;4966220;28;20662;-85
2020/12/09 02:52:43;;;;;;;33.17;14.83;;;1.40;99.90;;;;;;4986341;28;20046;-84
2020/12/09 02:55:09;;;;;;;33.23;16.27;;;1.40;99.90;;;;;;4993288;28;20034;-85
2020/12/09 02:57:34;;;;;;;32.50;15.10;;;1.40;99.90;;;;;;4964559;28;20444;-86
2020/12/09 03:00:00;;;;;;;32.53;14.40;;;1.50;99.90;;;;;;4972277;28;20082;-85
2020/12/09 03:02:25;;;;;;;23.37;10.63;;;1.50;99.90;;;;;;4994957;28;20500;-84
2020/12/09 03:04:51;;;;;;;30.57;14.47;;;1.50;99.90;;;;;;4981498;28;20038;-86
2020/12/09 03:07:17;;;;;;;31.13;13.83;;;1.50;99.90;;;;;;5003842;28;20082;-85
2020/12/09 03:09:42;;;;;;;28.00;11.70;;;1.50;99.90;;;;;;4989223;28;20112;-84
2020/12/09 03:12:08;;;;;;;25.20;11.57;;;1.50;99.90;;;;;;4990812;28;20027;-88
2020/12/09 03:14:33;;;;;;;36.80;17.73;;;1.50;99.90;;;;;;4986429;28;20053;-85
2020/12/09 03:16:59;;;;;;;33.20;14.97;;;1.50;99.90;;;;;;4984620;28;20115;-84
2020/12/09 03:19:25;;;;;;;34.07;15.40;;;1.50;99.90;;;;;;4983183;28;20045;-85
2020/12/09 03:21:51;;;;;;;38.10;16.70;;;1.50;99.90;;;;;;4970250;28;20073;-85
2020/12/09 03:24:16;;;;;;;35.03;16.47;;;1.50;99.90;;;;;;4980505;28;20497;-86
2020/12/09 03:26:42;;;;;;;36.43;17.40;;;1.50;99.90;;;;;;4963453;28;20031;-84
2020/12/09 03:29:08;;;;;;;36.37;15.87;;;1.50;99.90;;;;;;4952945;28;20050;-85
2020/12/09 03:31:33;;;;;;;38.93;16.10;;;1.40;99.90;;;;;;4979850;28;20035;-84
2020/12/09 03:33:59;;;;;;;36.63;15.63;;;1.40;99.90;;;;;;4979725;28;20087;-85
2020/12/09 03:36:24;;;;;;;29.63;12.90;;;1.40;99.90;;;;;;4958245;28;20030;-85
2020/12/09 03:38:50;;;;;;;40.83;19.80;;;1.50;99.90;;;;;;4967103;28;20034;-84
2020/12/09 03:41:18;;;;;;;31.67;14.40;;;1.50;99.90;;;;;;4970017;28;20080;-85
2020/12/09 03:43:43;;;;;;;39.77;16.73;;;1.50;99.90;;;;;;4968114;28;20080;-84
2020/12/09 03:46:09;;;;;;;36.90;16.90;;;1.50;99.90;;;;;;4968790;28;20130;-85
2020/12/09 03:48:36;;;;;;;40.23;18.93;;;1.40;99.90;;;;;;4970261;28;20169;-85
2020/12/09 03:51:02;;;;;;;37.40;17.60;;;1.50;99.90;;;;;;4974384;28;20478;-85
2020/12/09 03:53:27;;;;;;;33.50;14.73;;;1.40;99.90;;;;;;4977536;28;20393;-85
2020/12/09 03:55:53;;;;;;;34.50;14.83;;;1.50;99.90;;;;;;4978143;28;20030;-88
2020/12/09 03:58:19;;;;;;;37.03;17.50;;;1.50;99.90;;;;;;4995484;28;20034;-85
2020/12/09 04:00:44;;;;;;;41.03;18.20;;;1.50;99.90;;;;;;4972130;28;20042;-87
2020/12/09 04:03:10;;;;;;;31.73;15.33;;;1.50;99.90;;;;;;4997401;28;20030;-85
2020/12/09 04:05:35;;;;;;;36.00;15.93;;;1.50;99.90;;;;;;4990289;28;20046;-86
2020/12/09 04:08:02;;;;;;;33.73;14.80;;;1.50;99.90;;;;;;4994141;28;20037;-84
2020/12/09 04:10:28;;;;;;;36.33;15.93;;;1.50;99.90;;;;;;4999604;28;20219;-85
2020/12/09 04:12:54;;;;;;;35.63;16.57;;;1.50;99.90;;;;;;4993214;28;20030;-84
2020/12/09 04:15:19;;;;;;;29.90;14.07;;;1.50;99.90;;;;;;4980534;28;20043;-84
2020/12/09 04:17:45;;;;;;;39.60;17.97;;;1.40;99.90;;;;;;4978056;28;20045;-85
2020/12/09 04:20:12;;;;;;;41.77;18.93;;;1.50;99.90;;;;;;4992788;28;20029;-83
2020/12/09 04:22:39;;;;;;;38.17;17.13;;;1.50;99.90;;;;;;4990932;28;20081;-85
2020/12/09 04:25:05;;;;;;;33.77;14.37;;;1.50;99.90;;;;;;4985927;28;20038;-86
2020/12/09 04:27:31;;;;;;;38.73;17.30;;;1.50;99.90;;;;;;4979485;28;20034;-85
2020/12/09 04:29:58;;;;;;;39.23;18.23;;;1.50;99.90;;;;;;4978446;28;20125;-86
2020/12/09 04:32:24;;;;;;;35.60;15.33;;;1.50;99.90;;;;;;4997098;28;20023;-86
2020/12/09 04:34:51;;;;;;;34.80;12.83;;;1.50;99.90;;;;;;5001173;28;20025;-84
2020/12/09 04:37:19;;;;;;;36.63;15.40;;;1.50;99.90;;;;;;4973868;28;20030;-84
2020/12/09 04:39:45;;;;;;;37.17;16.20;;;1.50;99.90;;;;;;4993604;28;20549;-85
2020/12/09 04:42:19;;;;;;;39.13;16.17;;;1.50;99.90;;;;;;5001494;28;20041;-86
2020/12/09 04:44:46;;;;;;;37.47;14.70;;;1.60;99.90;;;;;;4965174;28;20053;-85
2020/12/09 04:47:26;;;;;;;41.17;17.30;;;1.50;99.90;;;;;;5009039;28;20050;-84
2020/12/09 04:50:20;;;;;;;33.75;14.65;;;1.50;99.90;;;;;;5002100;28;20037;-86
2020/12/09 04:53:28;;;;;;;34.17;13.33;;;1.60;99.90;;;;;;5003096;28;20599;-85
2020/12/09 04:55:58;;;;;;;33.67;13.50;;;1.50;99.90;;;;;;4996609;28;20444;-86
2020/12/09 04:58:42;;;;;;;45.37;18.83;;;1.50;99.90;;;;;;4976450;28;20026;-84
2020/12/09 05:01:11;;;;;;;39.93;17.17;;;1.50;99.90;;;;;;4990003;28;20066;-85
2020/12/09 05:03:57;;;;;;;40.57;16.97;;;1.60;99.90;;;;;;4990994;28;20092;-85
2020/12/09 05:06:23;;;;;;;41.20;18.57;;;1.60;99.90;;;;;;4978923;28;20100;-85
2020/12/09 05:08:54;;;;;;;38.33;16.77;;;1.60;99.90;;;;;;4998912;28;20085;-86
2020/12/09 05:11:24;;;;;;;37.00;16.85;;;1.60;99.90;;;;;;4976230;28;20031;-85
2020/12/09 05:13:58;;;;;;;38.87;16.50;;;1.60;99.90;;;;;;4977837;28;20034;-85
2020/12/09 05:16:25;;;;;;;37.43;16.37;;;1.60;99.90;;;;;;4981131;28;20045;-86
2020/12/09 05:18:55;;;;;;;41.20;17.70;;;1.60;99.90;;;;;;4994257;28;20066;-84
2020/12/09 05:21:23;;;;;;;37.00;15.40;;;1.60;99.90;;;;;;4977666;28;20026;-85
2020/12/09 05:23:49;;;;;;;42.90;20.33;;;1.60;99.90;;;;;;4977781;28;20026;-86
2020/12/09 05:26:21;;;;;;;46.13;20.67;;;1.60;99.90;;;;;;4977416;28;20426;-85
2020/12/09 05:28:49;;;;;;;45.13;19.45;;;1.60;99.90;;;;;;4994563;28;20088;-85
2020/12/09 05:31:19;;;;;;;42.17;18.65;;;1.60;99.90;;;;;;4978912;28;20113;-84
2020/12/09 05:33:46;;;;;;;44.60;19.90;;;1.60;99.90;;;;;;4977460;28;20034;-84
2020/12/09 05:36:13;;;;;;;43.45;19.38;;;1.60;99.90;;;;;;4994059;28;20076;-89
2020/12/09 05:38:39;;;;;;;42.37;19.17;;;1.60;99.90;;;;;;4978606;28;20027;-85
2020/12/09 05:41:12;;;;;;;43.27;20.13;;;1.60;99.90;;;;;;4998150;28;20402;-87
2020/12/09 05:43:42;;;;;;;44.65;17.80;;;1.60;99.90;;;;;;4977321;28;20034;-85
2020/12/09 05:46:09;;;;;;;46.42;19.63;;;1.60;99.90;;;;;;4976707;28;20042;-84
2020/12/09 05:48:35;;;;;;;45.55;21.33;;;1.60;99.90;;;;;;4975057;28;20070;-82
2020/12/09 05:51:01;;;;;;;41.53;16.40;;;1.60;99.90;;;;;;4992059;28;20545;-83
2020/12/09 05:53:29;;;;;;;49.57;20.37;;;1.60;99.90;;;;;;4976010;28;20540;-81
2020/12/09 05:56:12;;;;;;;45.42;19.30;;;1.60;99.90;;;;;;4982497;28;20374;-81
2020/12/09 05:58:45;;;;;;;46.97;20.27;;;1.60;99.90;;;;;;5008348;28;20018;-81
2020/12/09 06:01:18;;;;;;;45.08;19.98;;;1.60;99.90;;;;;;5008412;28;20033;-81
2020/12/09 06:03:49;;;;;;;47.23;19.13;;;1.60;99.90;;;;;;5003654;28;20030;-82
2020/12/09 06:06:22;;;;;;;46.00;21.03;;;1.60;99.90;;;;;;4998577;28;20097;-82
2020/12/09 06:08:52;;;;;;;45.23;17.10;;;1.60;99.90;;;;;;4995919;28;20022;-79
2020/12/09 06:11:20;;;;;;;45.47;19.40;;;1.60;99.90;;;;;;4996674;28;20470;-80
2020/12/09 06:13:46;;;;;;;47.37;20.17;;;1.60;99.90;;;;;;4997667;28;20030;-81
2020/12/09 06:16:13;;;;;;;42.85;18.83;;;1.60;99.90;;;;;;4996015;28;20030;-81
2020/12/09 06:18:42;;;;;;;48.47;21.77;;;1.60;99.90;;;;;;4980631;28;20779;-81
2020/12/09 06:21:08;;;;;;;48.00;19.75;;;1.60;99.90;;;;;;4997255;28;20057;-81
2020/12/09 06:23:34;;;;;;;54.90;22.63;;;1.60;99.90;;;;;;4975774;28;20057;-79
2020/12/09 06:26:02;;;;;;;47.03;19.13;;;1.50;99.90;;;;;;4994546;28;20105;-82
2020/12/09 06:28:30;;;;;;;46.47;20.33;;;1.50;99.90;;;;;;4996328;28;20026;-81
2020/12/09 06:30:59;;;;;;;47.83;20.03;;;1.50;99.90;;;;;;4992440;28;20038;-83
2020/12/09 06:33:32;;;;;;;52.30;22.30;;;1.50;99.90;;;;;;4990326;28;20430;-83
2020/12/09 06:36:28;;;;;;;51.80;22.30;;;1.40;99.90;;;;;;4994650;28;20298;-82
2020/12/09 06:39:06;;;;;;;53.30;23.60;;;1.40;99.90;;;;;;4992478;28;20034;-81
2020/12/09 06:41:36;;;;;;;52.57;21.47;;;1.30;99.90;;;;;;4988157;28;20050;-82
2020/12/09 06:44:05;;;;;;;48.27;19.60;;;1.30;99.90;;;;;;4986765;28;20026;-81
2020/12/09 06:46:40;;;;;;;53.70;23.50;;;1.30;99.90;;;;;;4994308;28;20112;-81
2020/12/09 06:49:28;;;;;;;56.95;23.95;;;1.30;99.90;;;;;;4995549;28;20031;-83
2020/12/09 06:51:55;;;;;;;55.80;23.33;;;1.30;99.90;;;;;;4996004;28;20054;-83
2020/12/09 06:54:21;;;;;;;53.05;21.95;;;1.30;99.90;;;;;;4983205;28;20026;-81
2020/12/09 06:57:14;;;;;;;55.70;23.23;;;1.30;99.90;;;;;;5007635;28;20033;-82
2020/12/09 06:59:41;;;;;;;53.40;22.17;;;1.30;99.90;;;;;;4998743;28;20026;-83
2020/12/09 07:02:07;;;;;;;57.97;22.45;;;1.30;99.90;;;;;;4998866;28;20035;-82
2020/12/09 07:04:51;;;;;;;53.97;22.17;;;1.30;99.90;;;;;;5013091;28;20061;-82
2020/12/09 07:07:38;;;;;;;51.80;20.43;;;1.30;99.90;;;;;;4995380;28;20367;-81
2020/12/09 07:10:26;;;;;;;53.50;20.43;;;1.30;99.90;;;;;;4996594;28;20367;-81
2020/12/09 07:13:01;;;;;;;55.30;22.60;;;1.30;99.90;;;;;;4976184;28;20598;-83
2020/12/09 07:15:28;;;;;;;59.90;23.85;;;1.30;99.90;;;;;;4993122;28;20540;-82
2020/12/09 07:17:54;;;;;;;61.45;23.13;;;1.30;99.90;;;;;;4993321;28;20037;-82
2020/12/09 07:20:19;;;;;;;58.20;23.88;;;1.30;99.90;;;;;;4991159;28;20028;-82
2020/12/09 07:22:45;;;;;;;58.70;23.25;;;1.30;99.90;;;;;;4993585;28;20023;-83
2020/12/09 07:25:11;;;;;;;58.00;23.70;;;1.20;99.90;;;;;;4993858;28;20387;-82
2020/12/09 07:27:38;;;;;;;64.40;24.98;;;1.20;99.90;;;;;;4992277;28;20555;-82
2020/12/09 07:30:13;;;;;;;59.57;23.73;;;1.30;99.90;;;;;;4994094;28;20027;-82
2020/12/09 07:32:38;;;;;;;63.63;26.97;;;1.20;99.90;;;;;;4993777;28;20378;-83
2020/12/09 07:35:07;;;;;;;56.67;22.20;;;1.20;99.90;;;;;;4978285;28;20103;-82
2020/12/09 07:37:36;;;;;;;65.03;24.50;;;1.20;99.90;;;;;;4996060;28;20092;-81
2020/12/09 07:40:28;;;;;;;52.65;20.38;;;1.20;99.90;;;;;;4993276;28;20026;-82
2020/12/09 07:43:10;;;;;;;61.60;21.67;;;1.20;99.90;;;;;;4990880;28;20030;-81
2020/12/09 07:45:39;;;;;;;62.15;23.00;;;1.10;99.90;;;;;;4993454;28;20065;-84
2020/12/09 07:48:10;;;;;;;57.77;20.33;;;1.10;99.90;;;;;;4992323;28;20054;-81
2020/12/09 07:50:37;;;;;;;66.73;24.60;;;1.10;99.90;;;;;;4992746;28;20037;-82
2020/12/09 07:53:04;;;;;;;58.63;21.97;;;1.10;99.90;;;;;;4979074;28;20038;-83
2020/12/09 07:55:33;;;;;;;59.40;21.43;;;1.10;99.90;;;;;;5001163;28;20034;-83
2020/12/09 07:58:22;;;;;;;61.58;20.80;;;1.00;99.90;;;;;;4996129;28;20021;-82
2020/12/09 08:00:49;;;;;;;66.25;24.08;;;1.00;99.90;;;;;;4993600;28;20026;-83
2020/12/09 08:03:26;;;;;;;54.27;21.00;;;1.10;99.90;;;;;;4994473;28;20508;-81
2020/12/09 08:05:53;;;;;;;62.00;21.83;;;1.00;99.90;;;;;;4994104;28;20038;-81
2020/12/09 08:08:20;;;;;;;58.93;20.17;;;1.10;99.90;;;;;;4996570;28;20018;-82
2020/12/09 08:10:47;;;;;;;72.60;25.37;;;1.10;99.90;;;;;;4990481;28;20022;-82
2020/12/09 08:13:20;;;;;;;74.77;24.30;;;1.10;99.90;;;;;;4994452;28;20014;-83
2020/12/09 08:16:14;;;;;;;75.47;27.03;;;1.10;99.90;;;;;;4975479;28;20046;-82
2020/12/09 08:18:43;;;;;;;68.27;24.13;;;1.10;99.90;;;;;;4976328;28;20092;-82
2020/12/09 08:21:10;;;;;;;89.75;31.25;;;1.10;99.90;;;;;;4994136;28;20025;-80
2020/12/09 08:23:50;;;;;;;81.70;29.20;;;1.10;99.90;;;;;;4994767;28;20037;-84
2020/12/09 08:26:36;;;;;;;73.20;26.10;;;1.10;99.90;;;;;;4988685;28;20072;-82
2020/12/09 08:29:02;;;;;;;70.63;22.87;;;1.10;99.90;;;;;;5000144;28;20026;-84
2020/12/09 08:31:28;;;;;;;69.13;23.03;;;1.10;99.90;;;;;;4994809;28;20109;-82
2020/12/09 08:33:53;;;;;;;76.03;23.87;;;1.10;99.90;;;;;;4995337;28;20042;-82
2020/12/09 08:36:21;;;;;;;75.07;25.40;;;1.10;99.90;;;;;;5007930;28;20017;-82
2020/12/09 08:38:59;;;;;;;76.17;25.60;;;1.10;99.90;;;;;;5001683;28;20070;-80
2020/12/09 08:41:35;;;;;;;72.63;27.40;;;1.10;99.90;;;;;;4999403;28;20031;-83
2020/12/09 08:44:07;;;;;;;74.77;25.80;;;1.10;99.90;;;;;;5006489;28;20114;-82
2020/12/09 08:46:34;;;;;;;82.03;29.60;;;1.10;99.90;;;;;;5003198;28;20081;-81
2020/12/09 08:49:04;;;;;;;83.13;29.83;;;1.10;99.90;;;;;;4971163;28;20355;-83
2020/12/09 08:51:33;;;;;;;92.60;31.73;;;1.20;99.90;;;;;;4969204;28;20090;-82
2020/12/09 08:54:01;;;;;;;82.00;27.37;;;1.20;99.90;;;;;;4991384;28;20038;-83
2020/12/09 08:56:32;;;;;;;86.50;28.00;;;1.10;99.90;;;;;;4974430;28;20561;-84
2020/12/09 08:58:59;;;;;;;65.05;24.33;;;1.20;99.90;;;;;;4999553;28;20033;-83
2020/12/09 09:01:24;;;;;;;74.13;25.33;;;1.20;99.90;;;;;;5001186;28;20018;-83
2020/12/09 09:03:58;;;;;;;78.03;27.65;;;1.20;99.90;;;;;;4959252;28;20057;-82
2020/12/09 09:06:24;;;;;;;66.85;21.48;;;1.20;99.90;;;;;;4966420;28;20042;-81
2020/12/09 09:08:50;;;;;;;74.80;25.90;;;1.20;99.90;;;;;;4973545;28;20393;-81
2020/12/09 09:11:26;;;;;;;65.63;23.27;;;1.20;99.90;;;;;;4981838;28;20066;-83
2020/12/09 09:13:54;;;;;;;66.93;20.67;;;1.20;99.90;;;;;;4975208;28;20368;-81
2020/12/09 09:16:21;;;;;;;65.80;22.27;;;1.20;99.90;;;;;;4963479;28;20214;-83
2020/12/09 09:18:46;;;;;;;76.10;26.20;;;1.20;99.90;;;;;;4980926;28;20034;-78
2020/12/09 09:21:12;;;;;;;72.10;25.40;;;1.20;99.90;;;;;;4976159;28;20034;-78
2020/12/09 09:23:38;;;;;;;76.90;27.10;;;1.20;99.90;;;;;;4974478;28;20098;-77
2020/12/09 09:26:03;;;;;;;79.67;27.63;;;1.20;99.90;;;;;;4979278;28;20038;-79
2020/12/09 09:28:29;;;;;;;68.63;22.50;;;1.20;99.90;;;;;;4969517;28;20046;-78
2020/12/09 09:30:55;;;;;;;78.57;27.07;;;1.20;99.90;;;;;;4973097;28;20031;-78
2020/12/09 09:33:20;;;;;;;68.50;24.03;;;1.20;99.90;;;;;;4969801;28;20048;-79
2020/12/09 09:35:46;;;;;;;68.27;24.10;;;1.20;99.90;;;;;;4975308;28;20489;-76
2020/12/09 09:38:12;;;;;;;71.40;25.37;;;1.20;99.90;;;;;;4967779;28;20026;-78
2020/12/09 09:40:37;;;;;;;66.45;21.60;;;1.20;99.90;;;;;;4982767;28;20492;-77
2020/12/09 09:43:03;;;;;;;56.03;20.33;;;1.20;99.90;;;;;;4975259;28;20027;-78
2020/12/09 09:45:28;;;;;;;77.32;26.65;;;1.10;99.90;;;;;;4973946;28;20156;-79
2020/12/09 09:47:54;;;;;;;61.03;20.57;;;1.20;99.90;;;;;;4974456;28;20051;-77
2020/12/09 09:50:20;;;;;;;68.37;25.10;;;1.20;99.90;;;;;;4973675;28;20053;-78
2020/12/09 09:52:46;;;;;;;67.50;23.00;;;1.20;99.90;;;;;;4968717;28;20107;-78
2020/12/09 09:55:12;;;;;;;77.63;25.53;;;1.20;99.90;;;;;;4974704;28;20146;-77
2020/12/09 09:57:38;;;;;;;68.97;25.60;;;1.20;99.90;;;;;;4974905;28;20114;-78
2020/12/09 10:00:05;;;;;;;72.03;25.37;;;1.20;99.90;;;;;;4971332;28;20090;-77
2020/12/09 10:02:31;;;;;;;61.10;22.73;;;1.20;99.90;;;;;;4974121;28;20082;-78
2020/12/09 10:04:57;;;;;;;74.40;26.37;;;1.20;99.90;;;;;;4974799;28;20043;-78
2020/12/09 10:07:23;;;;;;;61.83;23.97;;;1.20;99.90;;;;;;4974733;28;20026;-78
2020/12/09 10:09:48;;;;;;;69.03;25.93;;;1.20;99.90;;;;;;4974432;28;20023;-78
2020/12/09 10:12:14;;;;;;;66.75;24.38;;;1.30;99.90;;;;;;4974948;28;20035;-77
2020/12/09 10:14:39;;;;;;;69.57;26.57;;;1.30;99.90;;;;;;4973221;28;20046;-76
2020/12/09 10:17:05;;;;;;;71.97;26.57;;;1.20;99.90;;;;;;4974584;28;20026;-77
2020/12/09 10:19:30;;;;;;;56.90;19.93;;;1.30;99.90;;;;;;4973843;28;20038;-76
2020/12/09 10:21:59;;;;;;;64.87;23.50;;;1.30;99.90;;;;;;4974215;28;20101;-76
2020/12/09 10:24:25;;;;;;;72.03;25.23;;;1.30;99.90;;;;;;4972311;28;20030;-76
2020/12/09 10:26:50;;;;;;;62.58;24.10;;;1.30;99.90;;;;;;4972959;28;20034;-76
2020/12/09 10:29:16;;;;;;;61.90;23.30;;;1.30;99.90;;;;;;4973080;28;20402;-77
2020/12/09 10:31:46;;;;;;;47.73;18.70;;;1.30;99.90;;;;;;4972419;28;20039;-76
2020/12/09 10:34:15;;;;;;;62.60;23.43;;;1.30;99.90;;;;;;4971583;28;20030;-76
2020/12/09 10:36:49;;;;;;;57.57;20.90;;;1.30;99.90;;;;;;4970549;28;20093;-77
2020/12/09 10:39:16;;;;;;;60.50;22.60;;;1.30;99.90;;;;;;4968172;28;20125;-76
2020/12/09 10:41:42;;;;;;;54.47;19.90;;;1.30;99.90;;;;;;4974198;28;20035;-77
2020/12/09 10:44:08;;;;;;;51.27;20.10;;;1.30;99.90;;;;;;4972123;28;20085;-77
2020/12/09 10:46:36;;;;;;;49.37;20.20;;;1.30;99.90;;;;;;4979842;28;20517;-77
2020/12/09 10:49:05;;;;;;;58.67;22.37;;;1.30;99.90;;;;;;4991446;28;20034;-77
2020/12/09 10:51:31;;;;;;;53.70;22.97;;;1.40;99.90;;;;;;4992539;28;20054;-77
2020/12/09 10:53:58;;;;;;;61.80;23.50;;;1.40;99.90;;;;;;4991138;28;20030;-75
2020/12/09 10:56:27;;;;;;;55.67;20.73;;;1.40;99.90;;;;;;4992386;28;20088;-79
2020/12/09 10:58:54;;;;;;;56.30;21.45;;;1.40;99.90;;;;;;4991187;28;20046;-75
2020/12/09 11:01:20;;;;;;;51.77;21.40;;;1.40;99.90;;;;;;4993747;28;20034;-76
2020/12/09 11:03:47;;;;;;;54.20;22.20;;;1.40;99.90;;;;;;4986253;28;20025;-76
2020/12/09 11:06:13;;;;;;;49.23;18.90;;;1.40;99.90;;;;;;4993727;28;20498;-75
2020/12/09 11:08:39;;;;;;;48.63;18.90;;;1.40;99.90;;;;;;4991737;28;20030;-76
2020/12/09 11:11:05;;;;;;;50.30;20.17;;;1.40;99.90;;;;;;4996133;28;20038;-75
2020/12/09 11:13:31;;;;;;;60.10;25.33;;;1.40;99.90;;;;;;4993138;28;20048;-75
2020/12/09 11:15:56;;;;;;;44.87;17.47;;;1.40;99.90;;;;;;4992103;28;20096;-76
2020/12/09 11:18:22;;;;;;;48.33;19.50;;;1.40;99.90;;;;;;4993080;28;20038;-75
2020/12/09 11:20:48;;;;;;;48.10;19.03;;;1.40;99.90;;;;;;4992279;28;20166;-75
2020/12/09 11:23:14;;;;;;;36.57;15.33;;;1.30;99.90;;;;;;4990936;28;20027;-75
2020/12/09 11:25:40;;;;;;;53.37;22.73;;;1.30;99.90;;;;;;4992551;28;20144;-76
2020/12/09 11:28:05;;;;;;;47.23;19.00;;;1.30;99.90;;;;;;4990361;28;20021;-76
2020/12/09 11:30:31;;;;;;;47.10;19.63;;;1.30;99.90;;;;;;4991156;28;20382;-76
2020/12/09 11:32:57;;;;;;;49.33;19.60;;;1.30;99.90;;;;;;4991521;28;20022;-76
2020/12/09 11:35:22;;;;;;;52.88;21.13;;;1.40;99.90;;;;;;4986484;28;20045;-75
2020/12/09 11:37:48;;;;;;;39.70;16.67;;;1.40;99.90;;;;;;4992294;28;20038;-76
2020/12/09 11:40:13;;;;;;;48.07;20.43;;;1.40;99.90;;;;;;4989716;28;20030;-75
2020/12/09 11:42:39;;;;;;;51.97;20.77;;;1.40;99.90;;;;;;4990862;28;20022;-77
2020/12/09 11:45:06;;;;;;;49.20;20.63;;;1.40;99.90;;;;;;4989517;28;20042;-76
2020/12/09 11:47:34;;;;;;;47.43;21.10;;;1.40;99.90;;;;;;4980617;28;20134;-75
2020/12/09 11:49:59;;;;;;;50.87;18.83;;;1.40;99.90;;;;;;4971550;28;20554;-75
2020/12/09 11:52:25;;;;;;;52.03;22.73;;;1.30;99.90;;;;;;4972382;28;20113;-79
2020/12/09 11:54:50;;;;;;;40.23;14.90;;;1.40;99.90;;;;;;4973726;28;20438;-74
2020/12/09 11:57:16;;;;;;;47.20;18.40;;;1.40;99.90;;;;;;4974771;28;20050;-78
2020/12/09 11:59:41;;;;;;;46.93;21.17;;;1.40;99.90;;;;;;4970106;28;20054;-75
2020/12/09 12:02:07;;;;;;;45.72;18.73;;;1.40;99.90;;;;;;4977743;28;20819;-75
2020/12/09 12:04:33;;;;;;;52.77;22.77;;;1.40;99.90;;;;;;4992022;28;20034;-77
2020/12/09 12:06:58;;;;;;;37.38;15.50;;;1.30;99.90;;;;;;4990739;28;20030;-76
2020/12/09 12:09:24;;;;;;;42.50;17.00;;;1.30;99.90;;;;;;4979600;28;20034;-74
2020/12/09 12:11:49;;;;;;;37.67;14.40;;;1.30;99.90;;;;;;4971680;28;20034;-76
2020/12/09 12:14:15;;;;;;;34.93;14.27;;;1.30;99.90;;;;;;4972806;28;20050;-76
2020/12/09 12:16:40;;;;;;;42.80;15.30;;;1.30;99.90;;;;;;4978924;28;20062;-75
2020/12/09 12:19:06;;;;;;;40.47;14.67;;;1.30;99.90;;;;;;4975863;28;20031;-74
2020/12/09 12:21:31;;;;;;;42.50;16.33;;;1.30;99.90;;;;;;4971563;28;20031;-77
2020/12/09 12:23:57;;;;;;;48.43;19.87;;;1.30;99.90;;;;;;4984103;28;20078;-77
2020/12/09 12:26:23;;;;;;;40.37;17.47;;;1.30;99.90;;;;;;4975085;28;20031;-77
2020/12/09 12:28:50;;;;;;;52.53;18.77;;;1.30;99.90;;;;;;4978253;28;20038;-75
2020/12/09 12:31:19;;;;;;;45.43;18.43;;;1.30;99.90;;;;;;4982074;28;20158;-75
2020/12/09 12:33:45;;;;;;;41.15;16.63;;;1.30;99.90;;;;;;4975570;28;20026;-76
2020/12/09 12:36:11;;;;;;;36.73;13.80;;;1.30;99.90;;;;;;4969811;28;20033;-77
2020/12/09 12:38:37;;;;;;;43.33;16.53;;;1.30;99.90;;;;;;4972627;28;20026;-75
2020/12/09 12:41:06;;;;;;;38.03;16.00;;;1.30;99.90;;;;;;4982869;28;20030;-76